Nearby METAR Reports

 

KMGY - Dayton, Ohio, USA
Distance from station: N 3mi, 5km
Updated: Wed, 16-Jan-2019 5:53pm EST
Overcast
Overcast
 Wind from SSW
Wind: SSW 3 mph , 6 km/h
Temperature: 34°F , 1°C
Dew Point: 27°F , -3°C
Humidity: 75%
Barometer: 30.25 inHg , 1024.4 hPa
Clouds: Overcast
Visibility: 10 miles , 16 km
Cloud details: Overcast 2300 ft
2019/01/16 22:53 KMGY 162253Z AUTO 20003KT 10SM OVC023 01/M03 A3025 RMK AO2 SLP250 T00111028
KMWO - Middletown/Hook, Ohio, USA
Distance from station: W 9mi, 14km
Updated: Wed, 16-Jan-2019 6:15pm EST
Overcast
Overcast
 Wind from S
Wind: S 5 mph , 7 km/h
Temperature: 34°F , 1°C
Wind Chill: 29°F , -2°C
Dew Point: 27°F , -3°C
Humidity: 75%
Barometer: 30.28 inHg , 1025.4 hPa
Clouds: Overcast
Visibility: 10 miles , 16 km
Cloud details: Overcast 2700 ft
2019/01/16 23:15 KMWO 162315Z AUTO 17004KT 10SM OVC027 01/M03 A3028 RMK AO2 T00101030
 
KHAO - Hamilton, Ohio, USA
Distance from station: SW 20mi, 32km
Updated: Wed, 16-Jan-2019 5:53pm EST
Overcast
Overcast
 Wind from calm
Wind: Calm
Temperature: 34°F , 1°C
Dew Point: 27°F , -3°C
Humidity: 75%
Barometer: 30.28 inHg , 1025.4 hPa
Clouds: Overcast
Visibility: 10 miles , 16 km
Cloud details: Overcast 2100 ft
2019/01/16 22:53 KHAO 162253Z AUTO 00000KT 10SM OVC021 01/M03 A3028 RMK AO2 SLP261 T00111028
KFFO - Wright Paterson, Ohio, USA
Distance from station: NNE 21mi, 34km
Updated: Wed, 16-Jan-2019 5:56pm EST
Overcast
Overcast
 Wind from calm
Wind: Calm
Temperature: 34°F , 1°C
Dew Point: 27°F , -3°C
Humidity: 75%
Barometer: 30.25 inHg , 1024.4 hPa
Clouds: Overcast
Visibility: 10 miles , 16 km
Cloud details: Overcast 2200 ft
2019/01/16 22:56 KFFO 162256Z 00000KT 10SM OVC022 01/M03 A3025 RMK AO2A SLP255 T00091030
 
KDAY - Dayton, Ohio, USA
Distance from station: N 24mi, 39km
Updated: Wed, 16-Jan-2019 5:56pm EST
Overcast
Overcast
 Wind from W
Wind: W 3 mph , 6 km/h
Temperature: 34°F , 1°C
Dew Point: 28°F , -2°C
Humidity: 81%
Barometer: 30.25 inHg , 1024.4 hPa
Clouds: Overcast
Visibility: 10 miles , 16 km
Cloud details: Overcast 2100 ft
2019/01/16 22:56 KDAY 162256Z 26003KT 10SM OVC021 01/M02 A3025 RMK AO2 SLP254 T00061022
KILN - Wilmington, Ohio, USA
Distance from station: ESE 25mi, 39km
Updated: Wed, 16-Jan-2019 5:54pm EST
Overcast
Overcast
 Wind from W
Wind: W 3 mph , 6 km/h
Temperature: 32°F , 0°C
Dew Point: 27°F , -3°C
Humidity: 80%
Barometer: 30.26 inHg , 1024.7 hPa
Clouds: Overcast
Visibility: 10 miles , 16 km
Cloud details: Overcast 2000 ft
2019/01/16 22:54 KILN 162254Z AUTO 27003KT 10SM OVC020 00/M03 A3026 RMK AO2 SLP272 T00001033
 
KSGH - Springfield Muni, Ohio, USA
Distance from station: NE 29mi, 46km
Updated: Wed, 16-Jan-2019 5:56pm EST
Overcast
Overcast
 Wind from WSW
Wind: WSW 3 mph , 6 km/h
Temperature: 30°F , -1°C
Dew Point: 28°F , -2°C
Humidity: 93%
Barometer: 30.25 inHg , 1024.4 hPa
Clouds: Overcast
Visibility: 10 miles , 16 km
Cloud details: Overcast 2300 ft
2019/01/16 22:56 KSGH 162256Z AUTO 24003KT 10SM OVC023 M01/M02 A3025 RMK AO2 SLP257 T10061022
KI69 - Batavia, Ohio, USA
Distance from station: S 32mi, 52km
Updated: Wed, 16-Jan-2019 6:16pm EST
Overcast
Overcast
 Wind from calm
Wind: Calm
Temperature: 34°F , 1°C
Dew Point: 30°F , -1°C
Humidity: 87%
Barometer: 30.27 inHg , 1025.1 hPa
Clouds: Overcast
Visibility: 10 miles , 16 km
Cloud details: Overcast 1700 ft
2019/01/16 23:16 KI69 162316Z AUTO 00000KT 10SM OVC017 01/M01 A3027 RMK AO2 T00061012
 
KLUK - Cincinnat/Lunken, Ohio, USA
Distance from station: SSW 33mi, 53km
Updated: Wed, 16-Jan-2019 5:53pm EST
Overcast
Overcast
 Wind from calm
Wind: Calm
Temperature: 34°F , 1°C
Dew Point: 30°F , -1°C
Humidity: 87%
Barometer: 30.29 inHg , 1025.7 hPa
Clouds: Overcast
Visibility: 10 miles , 16 km
Cloud details: Overcast 2100 ft
2019/01/16 22:53 KLUK 162253Z 00000KT 10SM OVC021 01/M01 A3029 RMK AO2 SLP262 T00111011
KCVG - Covington, Kentucky, USA
Distance from station: SSW 42mi, 67km
Updated: Wed, 16-Jan-2019 5:52pm EST
Overcast
Overcast
 Wind from NNE
Wind: NNE 7 mph , 11 km/h
Temperature: 34°F , 1°C
Wind Chill: 28°F , -2°C
Dew Point: 28°F , -2°C
Humidity: 81%
Barometer: 30.25 inHg , 1024.4 hPa
Clouds: Overcast
Visibility: 10 miles , 16 km
Cloud details: Overcast 2100 ft
2019/01/16 22:52 KCVG 162252Z 03006KT 10SM OVC021 01/M02 A3025 RMK AO2 SLP248 T00111022
 
KVES - Versailles, Ohio, USA
Distance from station: NNW 47mi, 76km
Updated: Wed, 16-Jan-2019 6:15pm EST
Overcast
Overcast
 Wind from calm
Wind: Calm
Temperature: 32°F , 0°C
Dew Point: 28°F , -2°C
Humidity: 87%
Barometer: 30.24 inHg , 1024 hPa
Clouds: Overcast
Visibility: 10 miles , 16 km
Cloud details: Overcast 2500 ft
2019/01/16 23:15 KVES 162315Z AUTO 00000KT 10SM OVC025 00/M02 A3024 RMK AO2